Time;durP1;ratioP1;P1;durP2;ratioP2;P2;SDS_P1;SDS_P2;PMS_P1;PMS_P2;Temp;Humidity;BMP_temperature;BMP_pressure;BME280_temperature;BME280_humidity;BME280_pressure;Samples;Min_cycle;Max_cycle;Signal;HPM_P1;HPM_P2
2022/06/26 00:01:55;;;;;;;7.07;2.60;;;18.30;99.90;;;;;;5115658;28;20043;-74
2022/06/26 00:04:22;;;;;;;4.15;2.53;;;18.20;99.90;;;;;;5096044;28;20405;-75
2022/06/26 00:06:50;;;;;;;4.85;2.83;;;18.10;99.90;;;;;;5114820;28;20040;-74
2022/06/26 00:09:17;;;;;;;4.32;2.40;;;18.10;99.90;;;;;;5097216;28;20049;-73
2022/06/26 00:11:45;;;;;;;5.93;2.50;;;18.00;99.90;;;;;;5096209;28;20067;-74
2022/06/26 00:14:13;;;;;;;3.75;2.50;;;18.00;99.90;;;;;;5117577;28;20475;-73
2022/06/26 00:16:40;;;;;;;6.70;2.67;;;18.00;99.90;;;;;;5103700;28;20039;-74
2022/06/26 00:19:08;;;;;;;3.97;2.30;;;18.00;99.90;;;;;;5116315;28;20089;-74
2022/06/26 00:21:36;;;;;;;4.03;2.70;;;18.00;99.90;;;;;;5116546;28;20040;-73
2022/06/26 00:24:03;;;;;;;4.10;2.70;;;18.00;99.90;;;;;;5117365;28;20071;-74
2022/06/26 00:26:30;;;;;;;4.55;3.00;;;18.00;99.90;;;;;;5120202;28;20040;-74
2022/06/26 00:28:59;;;;;;;6.60;2.88;;;17.90;99.90;;;;;;5118952;28;20051;-74
2022/06/26 00:31:26;;;;;;;5.70;2.97;;;17.90;99.90;;;;;;5119898;28;20039;-73
2022/06/26 00:33:53;;;;;;;6.20;3.20;;;17.90;99.90;;;;;;5117699;28;20085;-73
2022/06/26 00:36:21;;;;;;;4.75;2.90;;;17.80;99.90;;;;;;5116368;28;20082;-73
2022/06/26 00:38:48;;;;;;;6.47;3.50;;;17.80;99.90;;;;;;5117849;28;20038;-73
2022/06/26 00:41:15;;;;;;;4.10;2.60;;;17.70;99.90;;;;;;5117072;28;20502;-74
2022/06/26 00:43:43;;;;;;;5.75;2.97;;;17.60;99.90;;;;;;5117944;28;20046;-74
2022/06/26 00:46:11;;;;;;;4.75;3.05;;;17.60;99.90;;;;;;5098936;28;20395;-74
2022/06/26 00:48:39;;;;;;;5.05;2.83;;;17.50;99.90;;;;;;5117797;28;20039;-74
2022/06/26 00:51:06;;;;;;;4.18;2.58;;;17.50;99.90;;;;;;5098534;28;20051;-74
2022/06/26 00:53:33;;;;;;;4.70;2.50;;;17.50;99.90;;;;;;5116991;28;20424;-74
2022/06/26 00:56:02;;;;;;;4.70;2.50;;;17.50;99.90;;;;;;5099300;28;20464;-74
2022/06/26 00:58:29;;;;;;;4.20;2.55;;;17.50;99.90;;;;;;5098744;28;20127;-74
2022/06/26 01:00:57;;;;;;;6.47;2.50;;;17.50;99.90;;;;;;5116895;28;20096;-74
2022/06/26 01:03:25;;;;;;;5.07;2.60;;;17.50;99.90;;;;;;5098024;28;20040;-74
2022/06/26 01:05:53;;;;;;;4.22;2.40;;;17.50;99.90;;;;;;5116580;28;20044;-74
2022/06/26 01:08:20;;;;;;;6.03;2.63;;;17.40;99.90;;;;;;5114543;28;20052;-73
2022/06/26 01:10:49;;;;;;;7.75;2.83;;;17.40;99.90;;;;;;5097868;28;20040;-74
2022/06/26 01:13:17;;;;;;;6.03;3.20;;;17.30;99.90;;;;;;5115659;28;20043;-74
2022/06/26 01:15:45;;;;;;;5.15;2.90;;;17.30;99.90;;;;;;5102448;28;20460;-75
2022/06/26 01:18:13;;;;;;;5.68;3.00;;;17.30;99.90;;;;;;5097897;28;20529;-73
2022/06/26 01:20:42;;;;;;;5.50;3.00;;;17.30;99.90;;;;;;5116033;28;20042;-74
2022/06/26 01:23:11;;;;;;;6.00;2.75;;;17.30;99.90;;;;;;5115715;28;20043;-74
2022/06/26 01:25:47;;;;;;;7.07;4.60;;;17.20;99.90;;;;;;5097999;28;20069;-73
2022/06/26 01:28:15;;;;;;;6.82;3.75;;;17.10;99.90;;;;;;5097997;28;20054;-73
2022/06/26 01:30:43;;;;;;;5.50;3.65;;;17.10;99.90;;;;;;5097881;28;20134;-74
2022/06/26 01:33:11;;;;;;;10.52;4.10;;;17.10;99.90;;;;;;5097709;28;20071;-75
2022/06/26 01:35:39;;;;;;;6.10;3.58;;;17.00;99.90;;;;;;5098223;28;20104;-73
2022/06/26 01:38:14;;;;;;;4.65;3.67;;;17.00;99.90;;;;;;5097271;28;20131;-75
2022/06/26 01:40:42;;;;;;;7.10;3.75;;;17.00;99.90;;;;;;5097602;28;20044;-74
2022/06/26 01:43:12;;;;;;;7.25;3.78;;;17.00;99.90;;;;;;5115216;28;20047;-74
2022/06/26 01:45:44;;;;;;;7.10;3.83;;;17.00;99.90;;;;;;5098655;28;20054;-75
2022/06/26 01:48:13;;;;;;;6.68;3.70;;;17.10;99.90;;;;;;5115268;28;20048;-76
2022/06/26 01:50:41;;;;;;;6.22;3.47;;;17.00;99.90;;;;;;5098257;28;20047;-76
2022/06/26 01:53:09;;;;;;;4.97;3.72;;;17.00;99.90;;;;;;5114333;28;20567;-73
2022/06/26 01:55:39;;;;;;;6.70;4.13;;;17.00;99.90;;;;;;5097852;28;20131;-73
2022/06/26 01:58:10;;;;;;;5.45;3.75;;;17.00;99.90;;;;;;5115252;28;20574;-74
2022/06/26 02:00:40;;;;;;;7.40;5.35;;;17.10;99.90;;;;;;5126960;28;20050;-74
2022/06/26 02:03:08;;;;;;;7.43;4.22;;;17.10;99.90;;;;;;5120998;28;20067;-74
2022/06/26 02:05:36;;;;;;;6.72;4.90;;;17.00;99.90;;;;;;5138216;28;20047;-74
2022/06/26 02:08:04;;;;;;;7.35;5.03;;;17.00;99.90;;;;;;5137314;28;20093;-73
2022/06/26 02:13:39;;;;;;;7.88;4.38;;;17.10;99.90;;;;;;5097310;28;20109;-73
2022/06/26 02:16:11;;;;;;;6.63;4.03;;;17.10;99.90;;;;;;5115951;27;20044;-73
2022/06/26 02:18:40;;;;;;;7.30;4.20;;;17.00;99.90;;;;;;5076400;28;20040;-72
2022/06/26 02:21:10;;;;;;;8.23;4.55;;;17.10;99.90;;;;;;5076269;28;20040;-75
2022/06/26 02:23:39;;;;;;;6.72;4.75;;;17.10;99.90;;;;;;5095330;28;20051;-75
2022/06/26 02:26:08;;;;;;;6.55;4.68;;;17.00;99.90;;;;;;5096347;28;20142;-75
2022/06/26 02:28:37;;;;;;;7.47;4.57;;;16.90;99.90;;;;;;5113356;28;20528;-76
2022/06/26 02:31:05;;;;;;;5.57;3.75;;;16.90;99.90;;;;;;5113424;28;20043;-76
2022/06/26 02:33:34;;;;;;;8.63;4.53;;;16.90;99.90;;;;;;5113698;28;20039;-75
2022/06/26 02:36:02;;;;;;;7.82;4.50;;;16.90;99.90;;;;;;5113638;28;20047;-75
2022/06/26 02:38:29;;;;;;;4.88;3.85;;;16.90;99.90;;;;;;5096705;28;20067;-74
2022/06/26 02:40:57;;;;;;;6.50;4.50;;;16.90;99.90;;;;;;5114542;28;20447;-74
2022/06/26 02:43:24;;;;;;;6.43;4.22;;;16.90;99.90;;;;;;5114515;28;20058;-73
2022/06/26 02:45:55;;;;;;;6.35;3.83;;;16.80;99.90;;;;;;5113105;28;20043;-73
2022/06/26 02:48:24;;;;;;;6.03;3.58;;;16.80;99.90;;;;;;5095768;28;20240;-73
2022/06/26 02:50:51;;;;;;;7.05;4.05;;;16.80;99.90;;;;;;5113317;28;20514;-73
2022/06/26 02:53:19;;;;;;;7.07;3.50;;;16.80;99.90;;;;;;5095852;28;20494;-73
2022/06/26 02:55:46;;;;;;;6.72;3.38;;;16.70;99.90;;;;;;5095881;28;20058;-72
2022/06/26 02:58:16;;;;;;;6.55;3.75;;;16.70;99.90;;;;;;5116199;28;20051;-73
2022/06/26 03:00:58;;;;;;;8.32;3.47;;;16.80;99.90;;;;;;5133084;28;20063;-73
2022/06/26 03:03:26;;;;;;;10.07;3.50;;;16.70;99.90;;;;;;5128073;28;20047;-74
2022/06/26 03:05:54;;;;;;;7.25;3.83;;;16.70;99.90;;;;;;5108086;28;20052;-73
2022/06/26 03:08:26;;;;;;;7.95;3.47;;;16.70;99.90;;;;;;5095852;28;20055;-73
2022/06/26 03:10:55;;;;;;;8.52;3.55;;;16.70;99.90;;;;;;5096533;28;20409;-73
2022/06/26 03:13:24;;;;;;;6.38;3.63;;;16.70;99.90;;;;;;5096482;28;20142;-73
2022/06/26 03:15:51;;;;;;;4.97;3.17;;;16.70;99.90;;;;;;5095570;28;20043;-75
2022/06/26 03:18:20;;;;;;;7.68;3.50;;;16.80;99.90;;;;;;5112125;28;20051;-75
2022/06/26 03:20:48;;;;;;;5.80;3.22;;;16.90;99.90;;;;;;5096472;28;20401;-75
2022/06/26 03:23:15;;;;;;;7.20;3.78;;;16.90;99.90;;;;;;5093056;28;20047;-75
2022/06/26 03:25:43;;;;;;;7.45;3.75;;;16.90;99.90;;;;;;5091774;28;20039;-75
2022/06/26 03:28:11;;;;;;;7.32;3.70;;;16.90;99.90;;;;;;5092616;28;20048;-75
2022/06/26 03:30:42;;;;;;;7.28;3.90;;;17.00;99.90;;;;;;5095716;28;20068;-73
2022/06/26 03:33:10;;;;;;;4.95;3.40;;;17.10;99.90;;;;;;5112635;28;20510;-73
2022/06/26 03:35:38;;;;;;;8.35;3.83;;;17.10;99.90;;;;;;5112741;28;20531;-73
2022/06/26 03:38:07;;;;;;;6.25;3.88;;;17.00;99.90;;;;;;5095773;28;20501;-73
2022/06/26 03:40:35;;;;;;;6.78;3.63;;;17.00;99.90;;;;;;5112649;28;20054;-73
2022/06/26 03:43:04;;;;;;;6.18;3.80;;;17.00;99.90;;;;;;5095528;28;20047;-74
2022/06/26 03:45:50;;;;;;;5.18;3.70;;;17.00;99.90;;;;;;5095364;28;20040;-73
2022/06/26 03:48:17;;;;;;;8.45;3.95;;;17.10;99.90;;;;;;5095027;28;20048;-74
2022/06/26 03:50:46;;;;;;;6.60;4.00;;;17.00;99.90;;;;;;5095503;28;20052;-74
2022/06/26 03:53:13;;;;;;;7.10;3.55;;;17.10;99.90;;;;;;5095152;28;20124;-74
2022/06/26 03:55:40;;;;;;;5.25;3.60;;;17.10;99.90;;;;;;5113387;28;20043;-75
2022/06/26 03:58:09;;;;;;;8.00;4.00;;;17.10;99.90;;;;;;5095363;28;20131;-75
2022/06/26 04:00:37;;;;;;;8.20;3.95;;;17.10;99.90;;;;;;5098031;28;20131;-75
2022/06/26 04:03:06;;;;;;;7.13;4.30;;;17.10;99.90;;;;;;5099093;28;20498;-75
2022/06/26 04:05:34;;;;;;;12.23;4.80;;;17.20;99.90;;;;;;5116033;28;20513;-75
2022/06/26 04:08:04;;;;;;;6.20;4.38;;;17.30;99.90;;;;;;5115961;28;20052;-73
2022/06/26 04:10:40;;;;;;;9.68;4.22;;;17.60;99.90;;;;;;5099309;28;20097;-75
2022/06/26 04:13:20;;;;;;;8.13;4.50;;;17.60;99.90;;;;;;5098810;28;20039;-73
2022/06/26 04:15:47;;;;;;;8.57;3.90;;;17.70;99.90;;;;;;5114287;28;20023;-72
2022/06/26 04:18:15;;;;;;;5.10;3.60;;;17.80;99.90;;;;;;5114283;28;20043;-74
2022/06/26 04:20:43;;;;;;;8.10;3.90;;;17.90;99.90;;;;;;5116228;28;20047;-74
2022/06/26 04:23:13;;;;;;;4.53;3.08;;;18.50;99.90;;;;;;5116633;28;20108;-73
2022/06/26 04:25:42;;;;;;;6.75;3.55;;;19.30;99.90;;;;;;5098488;28;20075;-73
2022/06/26 04:28:11;;;;;;;7.70;3.50;;;19.70;99.90;;;;;;5115603;28;20048;-73
2022/06/26 04:30:41;;;;;;;7.47;3.38;;;20.10;99.90;;;;;;5098920;28;20158;-73
2022/06/26 04:33:09;;;;;;;6.57;2.78;;;21.10;1.00;;;;;;5098315;28;20047;-73
2022/06/26 04:35:37;;;;;;;5.05;2.88;;;22.10;1.00;;;;;;5116403;28;20036;-74
2022/06/26 04:38:05;;;;;;;5.28;3.03;;;23.40;1.00;;;;;;5097651;28;20040;-75
2022/06/26 04:40:34;;;;;;;7.82;2.88;;;24.20;1.00;;;;;;5117537;28;20039;-74
2022/06/26 04:43:01;;;;;;;5.70;2.92;;;23.90;1.00;;;;;;5094904;28;20056;-74
2022/06/26 04:45:29;;;;;;;7.00;2.60;;;24.20;99.90;;;;;;5116098;28;20394;-74
2022/06/26 04:47:59;;;;;;;8.82;2.97;;;24.30;1.00;;;;;;5115588;28;20039;-74
2022/06/26 04:50:27;;;;;;;6.03;2.85;;;24.70;1.00;;;;;;5097811;28;20134;-73
2022/06/26 04:52:55;;;;;;;5.45;2.90;;;25.90;1.00;;;;;;5097922;28;20036;-74
2022/06/26 04:55:28;;;;;;;5.63;3.00;;;27.10;99.90;;;;;;5114965;28;20146;-74
2022/06/26 04:57:57;;;;;;;7.50;3.22;;;28.30;1.00;;;;;;5098050;28;20096;-74
2022/06/26 05:00:25;;;;;;;9.57;4.25;;;28.80;1.00;;;;;;5097736;28;20134;-74
2022/06/26 05:02:57;;;;;;;5.70;3.10;;;29.20;99.90;;;;;;5114344;28;20040;-74
2022/06/26 05:05:38;;;;;;;6.78;3.47;;;29.50;1.00;;;;;;5092094;28;20131;-74
2022/06/26 05:08:19;;;;;;;5.47;3.15;;;29.60;1.00;;;;;;5098611;28;20105;-74
2022/06/26 05:10:46;;;;;;;4.82;3.20;;;29.90;1.00;;;;;;5096794;28;20050;-75
2022/06/26 05:13:15;;;;;;;6.25;3.63;;;30.30;4.20;;;;;;5097152;28;20096;-74
2022/06/26 05:16:17;;;;;;;5.07;2.95;;;30.40;99.90;;;;;;5104544;28;20039;-74
2022/06/26 05:18:45;;;;;;;6.72;3.03;;;30.70;99.60;;;;;;5098142;28;20514;-74
2022/06/26 05:21:13;;;;;;;6.07;3.00;;;30.70;98.90;;;;;;5115033;28;20072;-75
2022/06/26 05:23:41;;;;;;;6.93;3.50;;;30.30;99.40;;;;;;5098166;28;20098;-74
2022/06/26 05:26:11;;;;;;;3.92;2.60;;;29.00;99.90;;;;;;5097880;28;20040;-75
2022/06/26 05:28:40;;;;;;;7.90;3.50;;;29.60;99.90;;;;;;5098128;28;20055;-76
2022/06/26 05:31:07;;;;;;;5.15;2.80;;;29.40;99.90;;;;;;5097726;28;20043;-74
2022/06/26 05:33:38;;;;;;;6.85;3.00;;;29.80;99.90;;;;;;5122060;28;20050;-74
2022/06/26 05:36:07;;;;;;;10.10;4.68;;;29.90;99.90;;;;;;5124212;28;20059;-74
2022/06/26 05:38:35;;;;;;;6.53;3.53;;;30.10;99.90;;;;;;5100494;28;20051;-74
2022/06/26 05:41:03;;;;;;;5.25;2.67;;;30.40;99.90;;;;;;5102008;28;20113;-74
2022/06/26 05:43:30;;;;;;;5.80;3.60;;;30.10;99.90;;;;;;5107213;28;20054;-74
2022/06/26 05:45:59;;;;;;;6.93;3.75;;;29.40;99.90;;;;;;5108083;28;20040;-74
2022/06/26 05:48:34;;;;;;;5.57;3.20;;;29.40;99.90;;;;;;5101894;28;20106;-74
2022/06/26 05:51:20;;;;;;;6.50;3.42;;;29.20;99.90;;;;;;5102882;28;20055;-75
2022/06/26 05:54:04;;;;;;;5.65;3.47;;;28.30;99.90;;;;;;5102429;28;20666;-74
2022/06/26 05:56:51;;;;;;;6.38;3.03;;;28.00;99.90;;;;;;5116040;28;20048;-74
2022/06/26 05:59:42;;;;;;;7.93;3.60;;;27.70;99.90;;;;;;5069119;28;20109;-74
2022/06/26 06:02:29;;;;;;;5.97;3.30;;;27.20;99.90;;;;;;5115988;28;20058;-74
2022/06/26 06:04:56;;;;;;;7.88;3.20;;;26.80;99.90;;;;;;5097477;28;20048;-74
2022/06/26 06:07:24;;;;;;;5.68;3.00;;;26.60;99.90;;;;;;5097015;28;20143;-74
2022/06/26 06:09:51;;;;;;;8.02;3.50;;;26.40;99.90;;;;;;5097811;28;20418;-73
2022/06/26 06:12:19;;;;;;;6.20;3.38;;;25.70;99.90;;;;;;5115428;28;20067;-74
2022/06/26 06:14:46;;;;;;;8.95;3.72;;;25.50;99.90;;;;;;5090950;28;20431;-75
2022/06/26 06:20:00;;;;;;;6.97;3.60;;;25.80;99.90;;;;;;5115877;28;20042;-75
2022/06/26 06:22:34;;;;;;;8.27;3.72;;;25.90;99.90;;;;;;5113706;28;20527;-74
2022/06/26 06:25:02;;;;;;;10.15;4.53;;;26.30;99.90;;;;;;5098299;28;20459;-74
2022/06/26 06:27:30;;;;;;;12.38;4.25;;;26.20;99.90;;;;;;5097510;28;20055;-74
2022/06/26 06:30:05;;;;;;;13.60;4.78;;;26.00;99.90;;;;;;5099014;28;20433;-73
2022/06/26 06:32:34;;;;;;;18.27;4.53;;;25.90;99.90;;;;;;5094098;28;20116;-74
2022/06/26 06:35:03;;;;;;;20.42;6.88;;;26.20;99.90;;;;;;5094173;28;20511;-76
2022/06/26 06:37:35;;;;;;;14.38;5.32;;;26.70;99.90;;;;;;5089729;28;20047;-75
2022/06/26 06:40:03;;;;;;;14.48;5.00;;;27.30;99.90;;;;;;5096365;28;20067;-76
2022/06/26 06:42:37;;;;;;;11.38;5.07;;;27.70;99.90;;;;;;5096613;28;20132;-74
2022/06/26 06:45:12;;;;;;;15.57;5.55;;;28.20;99.90;;;;;;5096335;28;20051;-73
2022/06/26 06:47:52;;;;;;;15.77;5.40;;;28.40;99.90;;;;;;5096696;28;20058;-75
2022/06/26 06:50:44;;;;;;;18.27;6.40;;;28.10;99.90;;;;;;5085290;28;20064;-75
2022/06/26 06:53:11;;;;;;;17.25;6.32;;;28.10;99.90;;;;;;5114181;28;20043;-74
2022/06/26 06:55:38;;;;;;;17.27;7.20;;;28.40;99.90;;;;;;5095869;28;20156;-74
2022/06/26 06:58:07;;;;;;;21.40;7.05;;;28.30;99.90;;;;;;5095919;28;20059;-74
2022/06/26 07:00:35;;;;;;;16.30;7.18;;;28.60;99.90;;;;;;5095864;28;20528;-74
2022/06/26 07:03:05;;;;;;;20.65;6.68;;;28.90;99.90;;;;;;5095645;28;20494;-73
2022/06/26 07:05:33;;;;;;;21.27;8.32;;;29.20;99.90;;;;;;5095824;28;20423;-72
2022/06/26 07:08:02;;;;;;;17.05;8.05;;;29.00;99.90;;;;;;5095438;28;20402;-73
2022/06/26 07:10:31;;;;;;;27.13;9.43;;;28.40;99.90;;;;;;5095040;28;20506;-73
2022/06/26 07:13:00;;;;;;;26.73;9.40;;;28.60;99.90;;;;;;5094707;28;20050;-75
2022/06/26 07:15:29;;;;;;;33.92;10.60;;;29.00;99.90;;;;;;5094179;28;20127;-74
2022/06/26 07:17:57;;;;;;;37.80;11.77;;;29.50;99.90;;;;;;5091558;28;20078;-75
2022/06/26 07:20:25;;;;;;;30.38;10.63;;;29.30;99.90;;;;;;5093784;28;20044;-74
2022/06/26 07:22:55;;;;;;;27.25;9.02;;;29.40;99.90;;;;;;5094528;28;20582;-75
2022/06/26 07:25:33;;;;;;;19.85;7.40;;;29.60;99.90;;;;;;5094928;28;20062;-75
2022/06/26 07:28:02;;;;;;;21.65;8.60;;;29.70;99.90;;;;;;5113237;28;20044;-75
2022/06/26 07:30:32;;;;;;;20.08;7.45;;;29.60;99.90;;;;;;5095301;28;20047;-74
2022/06/26 07:33:04;;;;;;;21.88;6.65;;;29.00;99.90;;;;;;5096370;28;20443;-75
2022/06/26 07:35:33;;;;;;;17.10;7.13;;;29.30;99.90;;;;;;5098348;28;20040;-75
2022/06/26 07:38:04;;;;;;;17.27;7.10;;;29.30;99.90;;;;;;5098997;28;20103;-75
2022/06/26 07:40:33;;;;;;;13.25;5.18;;;29.80;99.90;;;;;;5098708;28;20143;-75
2022/06/26 07:43:03;;;;;;;14.38;5.40;;;29.70;99.90;;;;;;5098730;28;20048;-73
2022/06/26 07:45:35;;;;;;;12.20;5.75;;;29.80;99.90;;;;;;5098354;28;20444;-74
2022/06/26 07:48:06;;;;;;;16.30;5.20;;;29.70;99.90;;;;;;5098919;28;20220;-73
2022/06/26 07:50:37;;;;;;;18.08;7.47;;;29.70;99.90;;;;;;5098721;28;20500;-74
2022/06/26 07:53:04;;;;;;;14.45;6.03;;;29.70;99.90;;;;;;5117537;28;20092;-76
2022/06/26 07:55:33;;;;;;;11.93;5.45;;;29.80;99.90;;;;;;5110115;28;20048;-74
2022/06/26 07:58:00;;;;;;;10.70;5.28;;;29.80;99.90;;;;;;5135147;28;20551;-75
2022/06/26 08:00:28;;;;;;;13.68;8.32;;;29.70;99.90;;;;;;5135945;28;20035;-76
2022/06/26 08:02:56;;;;;;;13.20;5.63;;;29.30;99.90;;;;;;5135648;28;20043;-75
2022/06/26 08:05:23;;;;;;;19.02;8.95;;;29.50;99.90;;;;;;5103822;28;20043;-75
2022/06/26 08:07:50;;;;;;;12.47;5.83;;;29.60;99.90;;;;;;5073667;28;1250337;-76
2022/06/26 08:10:18;;;;;;;9.45;5.20;;;29.30;99.90;;;;;;5101803;28;20540;-76
2022/06/26 08:12:46;;;;;;;12.60;5.70;;;29.00;99.90;;;;;;5117718;28;20156;-75
2022/06/26 08:15:14;;;;;;;10.02;5.20;;;28.60;99.90;;;;;;5107939;28;20052;-72
2022/06/26 08:17:41;;;;;;;13.10;5.30;;;28.40;99.90;;;;;;5117910;28;20047;-76
2022/06/26 08:20:10;;;;;;;12.32;6.45;;;28.40;99.90;;;;;;5118173;28;20045;-74
2022/06/26 08:22:37;;;;;;;14.52;6.75;;;28.20;99.90;;;;;;5117634;28;20039;-76
2022/06/26 08:25:05;;;;;;;13.07;5.60;;;28.30;99.90;;;;;;5117671;28;20039;-75
2022/06/26 08:27:32;;;;;;;12.23;6.32;;;28.30;99.90;;;;;;5099015;28;20040;-75
2022/06/26 08:30:02;;;;;;;13.95;5.72;;;28.20;99.90;;;;;;5099460;28;20047;-75
2022/06/26 08:32:29;;;;;;;13.13;6.90;;;28.20;99.90;;;;;;5117511;28;20043;-76
2022/06/26 08:34:57;;;;;;;11.40;5.10;;;28.60;99.90;;;;;;5098914;28;20048;-75
2022/06/26 08:37:24;;;;;;;9.75;5.38;;;28.50;99.90;;;;;;5117334;28;20086;-75
2022/06/26 08:39:51;;;;;;;8.52;5.03;;;28.60;99.90;;;;;;5117501;28;20035;-75
2022/06/26 08:42:19;;;;;;;7.97;4.68;;;28.60;99.90;;;;;;5117588;28;20043;-75
2022/06/26 08:44:47;;;;;;;13.32;6.03;;;28.20;99.90;;;;;;5118206;28;20036;-75
2022/06/26 08:47:21;;;;;;;11.10;4.93;;;28.40;99.90;;;;;;5098533;28;20043;-75
2022/06/26 08:49:49;;;;;;;16.85;5.20;;;28.90;99.90;;;;;;5098731;28;20138;-75
2022/06/26 08:52:19;;;;;;;12.07;5.80;;;29.50;99.90;;;;;;5116969;28;20040;-75
2022/06/26 08:54:47;;;;;;;11.40;5.68;;;29.80;99.90;;;;;;5116587;28;20123;-75
2022/06/26 08:57:16;;;;;;;11.95;5.28;;;29.90;99.90;;;;;;5117160;28;20036;-74
2022/06/26 08:59:43;;;;;;;13.07;5.50;;;30.00;99.90;;;;;;5116857;28;20040;-75
2022/06/26 09:02:10;;;;;;;11.05;5.80;;;30.30;99.90;;;;;;5128862;28;20034;-74
2022/06/26 09:04:40;;;;;;;10.55;5.65;;;30.10;99.90;;;;;;5140681;28;20057;-74
2022/06/26 09:07:07;;;;;;;10.60;4.57;;;30.30;99.90;;;;;;5127433;28;20112;-75
2022/06/26 09:09:39;;;;;;;11.40;5.10;;;30.40;99.90;;;;;;5117368;28;20117;-75
2022/06/26 09:12:08;;;;;;;12.88;4.22;;;30.70;99.90;;;;;;5099160;28;20047;-75
2022/06/26 09:14:35;;;;;;;11.43;4.25;;;30.70;99.90;;;;;;5112200;28;20059;-75
2022/06/26 09:17:04;;;;;;;12.15;4.38;;;30.60;99.90;;;;;;5111767;28;20406;-74
2022/06/26 09:19:36;;;;;;;10.38;4.53;;;30.50;99.90;;;;;;5117424;28;20092;-75
2022/06/26 09:22:10;;;;;;;13.80;5.50;;;30.50;99.90;;;;;;5116442;28;20034;-74
2022/06/26 09:24:39;;;;;;;11.35;5.18;;;29.90;99.90;;;;;;5116140;28;20090;-76
2022/06/26 09:27:10;;;;;;;9.90;4.40;;;29.90;99.90;;;;;;5115978;28;20074;-75
2022/06/26 09:29:42;;;;;;;12.88;4.88;;;29.80;99.90;;;;;;5098985;28;20101;-74
2022/06/26 09:32:14;;;;;;;8.98;4.40;;;29.50;99.90;;;;;;5120754;28;20085;-75
2022/06/26 09:34:46;;;;;;;11.68;4.80;;;29.40;99.90;;;;;;5123198;28;20046;-74
2022/06/26 09:37:15;;;;;;;12.52;4.60;;;29.70;99.90;;;;;;5122432;28;20050;-74
2022/06/26 09:39:43;;;;;;;10.55;4.35;;;29.80;99.90;;;;;;5124921;28;20039;-75
2022/06/26 09:42:19;;;;;;;10.68;4.57;;;30.00;99.90;;;;;;5124837;28;20088;-76
2022/06/26 09:44:47;;;;;;;7.90;4.50;;;29.90;99.90;;;;;;5128999;28;20043;-75
2022/06/26 09:47:23;;;;;;;13.48;4.95;;;30.00;99.90;;;;;;5122364;28;20063;-75
2022/06/26 09:49:51;;;;;;;13.75;4.75;;;30.20;99.90;;;;;;5119821;28;20459;-74
2022/06/26 09:52:21;;;;;;;11.43;4.95;;;30.40;99.90;;;;;;5121080;28;20047;-75
2022/06/26 09:54:49;;;;;;;10.43;4.85;;;30.50;99.90;;;;;;5121896;28;20039;-75
2022/06/26 09:57:17;;;;;;;8.63;4.18;;;30.50;99.90;;;;;;5100466;28;20070;-76
2022/06/26 09:59:44;;;;;;;9.65;5.00;;;30.50;99.90;;;;;;5118547;28;20453;-76
2022/06/26 10:07:49;;;;;;;11.50;4.97;;;30.90;99.90;;;;;;5115868;28;20600;-74
2022/06/26 10:10:20;;;;;;;11.15;5.30;;;30.80;99.20;;;;;;5116425;28;20055;-75
2022/06/26 10:12:50;;;;;;;8.25;4.25;;;31.20;98.70;;;;;;5115169;28;20487;-75
2022/06/26 10:15:19;;;;;;;8.13;4.60;;;30.80;98.90;;;;;;5105996;28;20093;-76
2022/06/26 10:18:24;;;;;;;8.95;5.07;;;30.90;98.30;;;;;;5097480;28;20483;-74
2022/06/26 10:20:55;;;;;;;8.68;4.55;;;30.50;97.70;;;;;;5067825;28;20047;-74
2022/06/26 10:23:34;;;;;;;10.57;4.88;;;30.40;97.80;;;;;;5115664;28;20456;-74
2022/06/26 10:26:13;;;;;;;13.88;7.88;;;30.90;97.80;;;;;;5115664;28;20517;-74
2022/06/26 10:28:56;;;;;;;10.63;4.97;;;31.60;97.60;;;;;;5116239;28;20039;-75
2022/06/26 10:31:23;;;;;;;10.48;4.68;;;31.90;96.80;;;;;;5115457;28;20047;-74
2022/06/26 10:33:51;;;;;;;12.63;9.57;;;32.10;97.20;;;;;;5114969;28;20078;-75
2022/06/26 10:36:22;;;;;;;13.90;6.50;;;32.30;97.10;;;;;;5114666;28;20099;-75
2022/06/26 10:38:51;;;;;;;7.05;4.50;;;32.40;95.30;;;;;;5096536;28;20119;-75
2022/06/26 10:44:07;;;;;;;12.98;8.15;;;32.20;94.80;;;;;;5116009;28;20043;-75
2022/06/26 10:46:40;;;;;;;11.15;7.07;;;31.90;94.80;;;;;;5096431;28;20044;-75
2022/06/26 10:49:08;;;;;;;10.57;5.10;;;31.90;94.00;;;;;;5115094;28;20051;-74
2022/06/26 10:51:40;;;;;;;9.40;5.32;;;31.90;93.20;;;;;;5115221;28;20036;-75
2022/06/26 10:54:20;;;;;;;12.27;5.30;;;31.90;93.20;;;;;;5096389;28;20478;-75
2022/06/26 10:56:48;;;;;;;14.70;6.78;;;31.70;93.10;;;;;;5096995;28;20134;-75
2022/06/26 10:59:22;;;;;;;18.10;5.35;;;31.80;93.10;;;;;;5114601;28;20085;-75
2022/06/26 11:01:50;;;;;;;9.25;5.10;;;32.00;93.00;;;;;;5114731;28;20100;-75
2022/06/26 11:04:17;;;;;;;10.93;5.10;;;32.00;91.50;;;;;;5114090;28;20040;-75
2022/06/26 11:06:44;;;;;;;18.98;5.75;;;32.40;90.70;;;;;;5113864;28;20039;-75
2022/06/26 11:09:11;;;;;;;11.50;5.25;;;32.70;90.90;;;;;;5095746;28;20044;-75
2022/06/26 11:11:40;;;;;;;10.02;5.30;;;32.50;92.80;;;;;;5114034;28;20575;-75
2022/06/26 11:14:09;;;;;;;9.48;5.07;;;32.30;93.20;;;;;;5113304;28;20101;-75
2022/06/26 11:16:40;;;;;;;10.88;4.50;;;32.20;93.50;;;;;;5105759;28;20035;-75
2022/06/26 11:19:09;;;;;;;8.98;5.60;;;32.20;94.40;;;;;;5114848;28;20486;-75
2022/06/26 11:21:36;;;;;;;10.98;5.00;;;32.20;95.00;;;;;;5113932;28;20127;-75
2022/06/26 11:24:04;;;;;;;10.60;5.30;;;31.90;94.70;;;;;;5095602;28;20051;-74
2022/06/26 11:26:31;;;;;;;10.32;4.93;;;30.80;96.40;;;;;;5114166;28;20031;-74
2022/06/26 11:29:02;;;;;;;7.15;4.72;;;30.30;96.90;;;;;;5114425;28;20039;-75
2022/06/26 11:31:31;;;;;;;8.43;5.07;;;30.20;97.10;;;;;;5114656;28;20040;-75
2022/06/26 11:34:08;;;;;;;11.48;4.85;;;30.30;98.00;;;;;;5114171;28;20134;-75
2022/06/26 11:36:35;;;;;;;10.57;4.82;;;30.30;97.90;;;;;;5115061;28;20040;-76
2022/06/26 11:39:03;;;;;;;7.10;4.65;;;30.30;97.90;;;;;;5095890;28;20055;-75
2022/06/26 11:41:30;;;;;;;11.88;4.95;;;30.40;98.40;;;;;;5114607;28;20551;-74
2022/06/26 11:44:00;;;;;;;8.68;4.93;;;30.10;96.90;;;;;;5095664;28;20047;-75
2022/06/26 11:46:28;;;;;;;8.98;5.07;;;30.50;95.10;;;;;;5114026;28;20063;-75
2022/06/26 11:48:56;;;;;;;12.65;4.70;;;31.00;95.20;;;;;;5096632;28;20364;-75
2022/06/26 11:51:23;;;;;;;10.57;4.97;;;31.40;94.20;;;;;;5114153;28;20100;-75
2022/06/26 11:53:52;;;;;;;12.05;6.22;;;31.60;93.60;;;;;;5113994;28;20073;-75
2022/06/26 11:56:22;;;;;;;9.90;5.57;;;31.50;92.40;;;;;;5114030;28;20043;-76
2022/06/26 11:58:51;;;;;;;10.32;6.57;;;31.60;92.00;;;;;;5114174;28;20093;-75
2022/06/26 12:01:21;;;;;;;11.48;5.60;;;31.80;92.00;;;;;;5114849;28;20479;-75
2022/06/26 12:03:53;;;;;;;11.48;5.95;;;32.10;92.00;;;;;;5119832;28;20044;-75
2022/06/26 12:06:35;;;;;;;11.85;6.20;;;32.30;91.20;;;;;;5131102;28;20059;-75
2022/06/26 12:09:14;;;;;;;18.70;13.73;;;32.50;90.40;;;;;;5126947;28;20066;-74
2022/06/26 12:11:42;;;;;;;10.32;5.43;;;32.50;89.70;;;;;;5115086;28;20047;-76
2022/06/26 12:14:14;;;;;;;8.88;4.88;;;32.20;88.80;;;;;;5113955;28;20055;-75
2022/06/26 12:16:50;;;;;;;9.68;5.20;;;32.00;90.20;;;;;;5105552;28;20081;-76
2022/06/26 12:19:18;;;;;;;10.38;5.90;;;31.80;92.20;;;;;;5113147;28;20097;-75
2022/06/26 12:21:47;;;;;;;9.95;5.60;;;31.30;92.70;;;;;;5116433;28;20044;-74
2022/06/26 12:24:15;;;;;;;10.75;6.40;;;31.00;93.10;;;;;;5117312;28;20047;-75
2022/06/26 12:26:44;;;;;;;10.40;6.00;;;31.00;93.40;;;;;;5117225;28;20036;-75
2022/06/26 12:29:12;;;;;;;13.18;7.25;;;31.20;92.20;;;;;;5117457;28;20047;-75
2022/06/26 12:31:40;;;;;;;11.65;6.57;;;31.20;91.40;;;;;;5117447;28;20092;-75
2022/06/26 12:34:10;;;;;;;11.63;7.07;;;31.10;91.60;;;;;;5117306;28;20040;-75
2022/06/26 12:36:38;;;;;;;12.32;7.25;;;31.40;91.60;;;;;;5125928;28;20563;-76
2022/06/26 12:39:09;;;;;;;12.63;8.90;;;31.70;90.90;;;;;;5119987;28;20048;-76
2022/06/26 12:41:36;;;;;;;14.63;7.93;;;32.10;90.70;;;;;;5119094;28;20098;-76
2022/06/26 12:44:04;;;;;;;11.32;7.32;;;32.30;87.40;;;;;;5117871;28;20383;-75
2022/06/26 12:46:32;;;;;;;12.10;6.90;;;32.30;87.20;;;;;;5121449;28;20545;-75
2022/06/26 12:49:00;;;;;;;13.02;7.18;;;32.00;86.90;;;;;;5126425;28;20093;-75
2022/06/26 12:51:29;;;;;;;11.60;7.28;;;31.50;87.50;;;;;;5122589;28;20065;-75
2022/06/26 12:53:57;;;;;;;12.43;8.35;;;31.50;87.20;;;;;;5118381;28;20490;-74
2022/06/26 12:56:25;;;;;;;11.43;6.70;;;31.60;88.00;;;;;;5117157;28;20104;-74
2022/06/26 12:58:52;;;;;;;7.72;5.25;;;31.40;89.30;;;;;;5116854;28;20054;-76
2022/06/26 13:01:19;;;;;;;12.48;5.60;;;31.40;90.20;;;;;;5117636;28;20047;-75
2022/06/26 13:03:46;;;;;;;10.40;5.88;;;31.40;90.00;;;;;;5121070;28;20069;-75
2022/06/26 13:06:14;;;;;;;10.55;6.20;;;31.50;90.30;;;;;;5119921;28;20551;-75
2022/06/26 13:08:42;;;;;;;10.00;5.68;;;31.50;89.00;;;;;;5117636;28;20056;-75
2022/06/26 13:11:27;;;;;;;12.15;5.90;;;31.60;88.50;;;;;;5116799;28;20052;-75